Kansasville, WI

12:28 PM CDT on September 03, 2015 (GMT -0500)
Jacobs Rd. | | Change Station
CLOSE
Current Station
Personal Weather Station
Location: Waterford, WI
Elevation: 797 ft
Nearby Weather Stations

Elev 797 ft 42.77 °N, 88.14 °W | Updated 23 seconds ago

Clear
Clear
83.3 °F
Feels Like 89 °F
N
6.7
Wind Variable Wind from WNW
Gusts 7.4 mph

Today
High -- | Low -- °F
--% Chance of Precip.
Yesterday
High -- | Low -- °F
Precip. -- in
6:19 AM 7:23 PM
Waning Gibbous, 68% visible
Pressure 29.94 in
Visibility 10.0 miles
Clouds Scattered Clouds 2600 ft
Heat Index 89 °F
Dew Point 72 °F
Humidity 69%
Rainfall 0.00 in
Snow Depth Not available.
UV 4.0 out of 12
Pollen 4.10 out of 12
Air Quality Not available.
Flu Activity Not available.
METAR KBUU 031715Z AUTO 24005KT 10SM SCT026 28/21 A2994 RMK AO2 T02840209
Pressure 29.94 in
Visibility 10.0 miles
Clouds Scattered Clouds 2600 ft
Heat Index 89 °F
Dew Point 72 °F
Humidity 69%
Rainfall 0.00 in
Snow Depth Not available.
UV 4.0 out of 12
Pollen 4.10 out of 12
Air Quality Not available.
Flu Activity Not available.
METAR KBUU 031715Z AUTO 24005KT 10SM SCT026 28/21 A2994 RMK AO2 T02840209

10-Day Weather Forecast

×

Almanac

Astronomy

Sep. 03, 2015 Rise Set
Actual Time
Civil Twilight
Nautical Twilight
Astronomical Twilight
Moon
Length of Visible Light
Length of Day
Tomorrow will be .
, % of the Moon is Illuminated

Today's Extremes

State Highs State Lows

Community

WunderPhotos

Upload Photos

1,851,990 photos uploaded!

WunderBlogs® & News

Nearby

Air Quality

  Air Quality AQ Index Pollutant
Not available.

Snow Depth

Station Depth Elevation

Earthquake Activity

City Distance Mag. Time & Date
Minimum magnitude displayed is 2.5.

Coastal Water Temperatures

Place Temperature

Stations

Nearby Weather Stations

Station Location Temp. Windchill Dew Point Humidity Wind Precip. Elev Updated Type